Time;durP1;ratioP1;P1;durP2;ratioP2;P2;SDS_P1;SDS_P2;PMS_P1;PMS_P2;Temp;Humidity;BMP_temperature;BMP_pressure;BME280_temperature;BME280_humidity;BME280_pressure;Samples;Min_cycle;Max_cycle;Signal;HPM_P1;HPM_P2
2021/11/26 00:00:57;;;;;;;51.92;19.95;;;;;;;-0.46;100.00;96126.34;2073045;28;20027;-70
2021/11/26 00:01:57;;;;;;;50.43;18.93;;;;;;;-0.42;100.00;96124.69;2073270;28;20105;-70
2021/11/26 00:02:58;;;;;;;50.73;20.33;;;;;;;-0.43;100.00;96119.69;2073104;28;20127;-70
2021/11/26 00:04:00;;;;;;;51.87;19.67;;;;;;;-0.40;100.00;96119.88;2080631;28;20179;-70
2021/11/26 00:05:02;;;;;;;51.35;19.67;;;;;;;-0.42;100.00;96123.88;2080435;28;20029;-71
2021/11/26 00:06:03;;;;;;;53.22;20.98;;;;;;;-0.43;100.00;96125.00;2073238;28;20041;-71
2021/11/26 00:07:03;;;;;;;51.97;19.95;;;;;;;-0.45;100.00;96119.94;2073107;28;20029;-71
2021/11/26 00:08:04;;;;;;;53.87;20.33;;;;;;;-0.44;100.00;96118.88;2073065;28;20061;-70
2021/11/26 00:09:04;;;;;;;51.50;20.17;;;;;;;-0.46;100.00;96110.38;2073211;28;20039;-70
2021/11/26 00:10:05;;;;;;;54.88;19.60;;;;;;;-0.43;100.00;96111.69;2080522;28;20026;-71
2021/11/26 00:11:06;;;;;;;53.13;20.10;;;;;;;-0.54;100.00;96112.88;2080673;28;20021;-70
2021/11/26 00:12:07;;;;;;;55.57;19.87;;;;;;;-0.50;100.00;96098.72;2072381;28;20021;-71
2021/11/26 00:13:09;;;;;;;55.67;21.73;;;;;;;-0.53;100.00;96103.81;2064333;28;20405;-71
2021/11/26 00:14:23;;;;;;;51.63;20.13;;;;;;;-0.52;100.00;96100.09;2072603;28;20117;-70
2021/11/26 00:15:41;;;;;;;53.05;19.92;;;;;;;-0.48;100.00;96090.47;2073182;28;20270;-70
2021/11/26 00:16:43;;;;;;;54.90;21.00;;;;;;;-0.46;100.00;96091.00;2073141;28;20452;-70
2021/11/26 00:17:51;;;;;;;49.88;19.67;;;;;;;-0.53;100.00;96083.34;2073052;28;20542;-70
2021/11/26 00:18:57;;;;;;;56.53;20.30;;;;;;;-0.55;100.00;96076.72;2073181;28;20518;-71
2021/11/26 00:19:58;;;;;;;54.50;19.83;;;;;;;-0.53;100.00;96075.38;2072988;28;20030;-70
2021/11/26 00:20:59;;;;;;;53.40;19.83;;;;;;;-0.49;100.00;96068.41;2072193;28;20033;-70
2021/11/26 00:21:59;;;;;;;52.97;19.20;;;;;;;-0.51;100.00;96073.25;2073104;28;20053;-70
2021/11/26 00:23:00;;;;;;;53.83;20.50;;;;;;;-0.49;100.00;96068.41;2074794;28;20026;-70
2021/11/26 00:24:00;;;;;;;52.10;20.15;;;;;;;-0.45;100.00;96071.31;2082123;28;20028;-71
2021/11/26 00:25:00;;;;;;;52.22;20.45;;;;;;;-0.44;100.00;96071.03;2082350;28;20135;-71
2021/11/26 00:26:01;;;;;;;54.17;20.70;;;;;;;-0.49;100.00;96072.94;2074039;28;20109;-70
2021/11/26 00:27:01;;;;;;;51.17;19.57;;;;;;;-0.50;100.00;96066.84;2074214;28;20049;-71
2021/11/26 00:28:02;;;;;;;51.97;20.63;;;;;;;-0.45;100.00;96073.97;2082037;28;20510;-71
2021/11/26 00:29:03;;;;;;;53.70;19.73;;;;;;;-0.43;100.00;96069.19;2082283;28;20025;-70
2021/11/26 00:30:04;;;;;;;52.30;20.33;;;;;;;-0.43;100.00;96075.25;2074672;28;20053;-71
2021/11/26 00:31:04;;;;;;;53.67;19.50;;;;;;;-0.47;100.00;96068.13;2074701;28;20056;-71
2021/11/26 00:32:05;;;;;;;54.47;19.80;;;;;;;-0.49;100.00;96063.09;2082126;28;20490;-71
2021/11/26 00:33:05;;;;;;;52.13;20.27;;;;;;;-0.45;100.00;96063.34;2082203;28;20043;-71
2021/11/26 00:34:06;;;;;;;52.03;19.37;;;;;;;-0.49;100.00;96065.75;2074799;28;20028;-71
2021/11/26 00:35:07;;;;;;;51.38;19.85;;;;;;;-0.46;100.00;96064.41;2074747;28;20049;-70
2021/11/26 00:36:07;;;;;;;49.63;19.83;;;;;;;-0.47;100.00;96052.19;2074724;28;20030;-70
2021/11/26 00:37:08;;;;;;;51.43;19.53;;;;;;;-0.46;100.00;96053.78;2074904;28;20333;-70
2021/11/26 00:38:08;;;;;;;50.13;19.48;;;;;;;-0.44;100.00;96059.63;2074737;28;20312;-71
2021/11/26 00:39:09;;;;;;;50.43;18.40;;;;;;;-0.47;100.00;96055.66;2074611;28;20030;-70
2021/11/26 00:40:09;;;;;;;50.77;19.43;;;;;;;-0.53;100.00;96056.78;2074597;28;20033;-70
2021/11/26 00:41:09;;;;;;;49.05;19.13;;;;;;;-0.52;100.00;96055.72;2082022;28;20072;-71
2021/11/26 00:42:10;;;;;;;50.00;19.30;;;;;;;-0.57;100.00;96057.66;2074146;28;20116;-70
2021/11/26 00:43:11;;;;;;;52.07;20.53;;;;;;;-0.61;100.00;96048.63;2065954;28;20030;-71
2021/11/26 00:44:11;;;;;;;47.92;19.15;;;;;;;-0.63;100.00;96043.59;2073979;28;20080;-70
2021/11/26 00:45:13;;;;;;;48.80;20.03;;;;;;;-0.62;100.00;96045.19;2082224;28;20047;-70
2021/11/26 00:46:14;;;;;;;49.72;20.23;;;;;;;-0.68;100.00;96046.31;2074848;28;20026;-71
2021/11/26 00:47:14;;;;;;;50.73;19.50;;;;;;;-0.68;100.00;96048.19;2074765;28;20109;-71
2021/11/26 00:48:15;;;;;;;52.42;19.02;;;;;;;-0.65;100.00;96045.75;2074544;28;20056;-70
2021/11/26 00:49:15;;;;;;;56.08;21.13;;;;;;;-0.62;100.00;96041.72;2074683;28;20106;-70
2021/11/26 00:50:17;;;;;;;51.03;19.17;;;;;;;-0.59;100.00;96047.28;2074617;28;20068;-71
2021/11/26 00:51:17;;;;;;;48.42;18.65;;;;;;;-0.54;100.00;96043.78;2073992;28;20313;-71
2021/11/26 00:52:17;;;;;;;49.83;19.33;;;;;;;-0.61;100.00;96043.31;2074058;28;20061;-70
2021/11/26 00:53:18;;;;;;;50.47;18.70;;;;;;;-0.66;100.00;96040.72;2074680;28;20049;-70
2021/11/26 00:54:18;;;;;;;49.38;19.33;;;;;;;-0.66;100.00;96036.22;2074626;28;20479;-71
2021/11/26 00:55:19;;;;;;;47.47;18.50;;;;;;;-0.67;100.00;96042.59;2074565;28;20030;-71
2021/11/26 00:56:19;;;;;;;48.95;19.38;;;;;;;-0.68;100.00;96041.00;2074671;28;20037;-71
2021/11/26 00:57:19;;;;;;;53.10;19.80;;;;;;;-0.59;100.00;96041.97;2074586;28;20463;-70
2021/11/26 00:58:20;;;;;;;49.27;19.17;;;;;;;-0.53;100.00;96034.72;2074637;28;20379;-71
2021/11/26 00:59:20;;;;;;;50.47;18.47;;;;;;;-0.53;100.00;96043.50;2081930;28;20029;-70
2021/11/26 01:00:21;;;;;;;51.07;18.77;;;;;;;-0.55;100.00;96042.97;2073748;28;20026;-70
2021/11/26 01:01:21;;;;;;;50.00;20.58;;;;;;;-0.51;100.00;96037.91;2065185;28;20026;-71
2021/11/26 01:02:21;;;;;;;46.57;18.77;;;;;;;-0.52;100.00;96039.75;2073713;28;20032;-70
2021/11/26 01:03:23;;;;;;;51.20;19.63;;;;;;;-0.55;100.00;96036.88;2073635;28;20029;-71
2021/11/26 01:04:23;;;;;;;48.15;18.92;;;;;;;-0.46;100.00;96035.97;2073622;28;20270;-71
2021/11/26 01:05:23;;;;;;;49.55;19.17;;;;;;;-0.41;100.00;96041.22;2074336;28;20506;-71
2021/11/26 01:06:24;;;;;;;46.73;18.70;;;;;;;-0.38;100.00;96039.06;2074627;28;20129;-71
2021/11/26 01:07:24;;;;;;;47.87;19.17;;;;;;;-0.37;100.00;96038.00;2073704;28;20113;-71
2021/11/26 01:08:25;;;;;;;50.70;19.33;;;;;;;-0.32;100.00;96043.25;2073852;28;20030;-71
2021/11/26 01:09:25;;;;;;;46.38;19.02;;;;;;;-0.38;100.00;96037.22;2074561;28;20581;-70
2021/11/26 01:10:26;;;;;;;50.03;19.67;;;;;;;-0.40;100.00;96034.03;2073618;28;20453;-71
2021/11/26 01:11:26;;;;;;;47.55;18.50;;;;;;;-0.37;100.00;96030.03;2073674;28;20474;-71
2021/11/26 01:12:27;;;;;;;49.97;19.53;;;;;;;-0.45;100.00;96034.09;2081898;28;20418;-71
2021/11/26 01:13:27;;;;;;;49.80;19.33;;;;;;;-0.50;100.00;96034.19;2073791;28;20511;-70
2021/11/26 01:14:28;;;;;;;49.85;19.33;;;;;;;-0.50;100.00;96034.94;2073710;28;20101;-71
2021/11/26 01:15:30;;;;;;;48.87;19.43;;;;;;;-0.49;100.00;96035.72;2090069;28;20044;-71
2021/11/26 01:16:31;;;;;;;50.53;18.88;;;;;;;-0.53;100.00;96032.88;2089610;28;20075;-71
2021/11/26 01:17:31;;;;;;;47.78;19.13;;;;;;;-0.51;100.00;96044.00;2074545;28;20033;-70
2021/11/26 01:18:32;;;;;;;47.08;18.25;;;;;;;-0.54;100.00;96039.25;2074410;28;20119;-71
2021/11/26 01:19:32;;;;;;;48.50;18.77;;;;;;;-0.51;100.00;96040.56;2073684;28;20025;-70
2021/11/26 01:20:34;;;;;;;51.23;19.97;;;;;;;-0.54;100.00;96038.47;2073608;28;20041;-70
2021/11/26 01:21:35;;;;;;;48.83;19.67;;;;;;;-0.53;100.00;96040.03;2090093;28;20031;-71
2021/11/26 01:22:35;;;;;;;49.80;19.77;;;;;;;-0.45;100.00;96034.91;2081913;28;20025;-71
2021/11/26 01:23:36;;;;;;;48.13;19.10;;;;;;;-0.35;100.00;96043.81;2065533;28;20113;-71
2021/11/26 01:24:37;;;;;;;47.53;18.23;;;;;;;-0.29;100.00;96035.50;2065626;28;20030;-71
2021/11/26 01:25:38;;;;;;;48.70;18.97;;;;;;;-0.27;100.00;96043.97;2073739;28;20026;-71
2021/11/26 01:26:39;;;;;;;49.20;19.65;;;;;;;-0.27;100.00;96043.97;2074435;28;20088;-71
2021/11/26 01:27:39;;;;;;;50.17;20.30;;;;;;;-0.33;100.00;96039.00;2081881;28;20545;-71
2021/11/26 01:28:39;;;;;;;46.90;18.95;;;;;;;-0.37;100.00;96035.34;2081652;28;20350;-71
2021/11/26 01:29:40;;;;;;;47.40;18.67;;;;;;;-0.36;100.00;96036.94;2081773;28;20148;-71
2021/11/26 01:30:45;;;;;;;48.80;20.27;;;;;;;-0.42;100.00;96038.84;2073455;28;20471;-70
2021/11/26 01:31:46;;;;;;;51.35;20.20;;;;;;;-0.50;100.00;96036.84;2081844;28;20036;-71
2021/11/26 01:32:46;;;;;;;47.60;19.05;;;;;;;-0.56;100.00;96027.31;2081664;28;20029;-71
2021/11/26 01:33:47;;;;;;;45.03;17.53;;;;;;;-0.56;100.00;96037.94;2073447;28;20036;-70
2021/11/26 01:34:48;;;;;;;48.33;19.77;;;;;;;-0.60;100.00;96031.63;2073459;28;20030;-71
2021/11/26 01:35:52;;;;;;;47.72;19.67;;;;;;;-0.57;100.00;96029.16;2073609;28;20038;-71
2021/11/26 01:36:52;;;;;;;47.78;19.92;;;;;;;-0.56;100.00;96032.63;2081345;28;20021;-71
2021/11/26 01:37:53;;;;;;;46.97;20.03;;;;;;;-0.55;100.00;96023.59;2074229;28;20041;-70
2021/11/26 01:38:55;;;;;;;47.17;18.92;;;;;;;-0.53;100.00;96030.22;2081687;28;20029;-71
2021/11/26 01:39:55;;;;;;;50.50;20.67;;;;;;;-0.42;100.00;96018.38;2081765;28;20248;-71
2021/11/26 01:40:56;;;;;;;48.50;19.37;;;;;;;-0.48;100.00;96019.50;2081634;28;20101;-71
2021/11/26 01:41:56;;;;;;;51.93;19.77;;;;;;;-0.48;100.00;96016.84;2081689;28;20027;-71
2021/11/26 01:42:57;;;;;;;49.65;19.63;;;;;;;-0.47;100.00;96017.63;2081589;28;20263;-71
2021/11/26 01:43:57;;;;;;;44.97;18.37;;;;;;;-0.41;100.00;96014.63;2073466;28;20045;-71
2021/11/26 01:44:57;;;;;;;49.63;19.88;;;;;;;-0.33;100.00;96021.19;2065399;28;20510;-71
2021/11/26 01:46:06;;;;;;;49.60;19.20;;;;;;;-0.31;100.00;96015.59;2073551;28;20092;-70
2021/11/26 01:47:07;;;;;;;48.28;19.63;;;;;;;-0.37;100.00;96017.53;2081604;28;20057;-70
2021/11/26 01:48:07;;;;;;;47.87;19.20;;;;;;;-0.43;100.00;96016.00;2081581;28;20037;-70
2021/11/26 01:49:07;;;;;;;48.23;19.60;;;;;;;-0.46;100.00;96005.94;2074035;28;20038;-71
2021/11/26 01:50:10;;;;;;;49.77;19.50;;;;;;;-0.48;100.00;96011.53;2074031;28;20041;-71
2021/11/26 01:51:11;;;;;;;52.88;19.10;;;;;;;-0.48;100.00;96013.41;2081563;28;20059;-70
2021/11/26 01:52:11;;;;;;;46.67;18.63;;;;;;;-0.38;100.00;96002.66;2081767;28;20037;-70
2021/11/26 01:53:12;;;;;;;45.80;18.67;;;;;;;-0.36;100.00;96000.50;2074244;28;20359;-71
2021/11/26 01:54:12;;;;;;;44.55;19.20;;;;;;;-0.29;100.00;96005.47;2074161;28;20036;-71
2021/11/26 01:55:13;;;;;;;46.30;18.83;;;;;;;-0.26;100.00;95999.56;2081643;28;20483;-71
2021/11/26 01:56:14;;;;;;;44.45;18.02;;;;;;;-0.34;100.00;96010.84;2081835;28;20025;-71
2021/11/26 01:57:19;;;;;;;47.50;19.00;;;;;;;-0.36;100.00;95989.88;2074236;28;20071;-71
2021/11/26 01:58:20;;;;;;;46.88;18.92;;;;;;;-0.27;100.00;96001.44;2074101;28;20029;-71
2021/11/26 01:59:20;;;;;;;48.78;18.73;;;;;;;-0.29;100.00;95998.28;2081477;28;20112;-70
2021/11/26 02:00:28;;;;;;;44.87;18.67;;;;;;;-0.27;100.00;95996.13;2081414;28;20029;-71
2021/11/26 02:01:29;;;;;;;46.17;18.70;;;;;;;-0.29;100.00;95992.19;2074085;28;20037;-71
2021/11/26 02:02:29;;;;;;;49.75;20.67;;;;;;;-0.29;100.00;95992.97;2073995;28;20182;-71
2021/11/26 02:03:30;;;;;;;44.77;18.60;;;;;;;-0.30;100.00;95994.03;2073235;28;20026;-71
2021/11/26 02:04:31;;;;;;;47.35;18.83;;;;;;;-0.37;100.00;95984.84;2073192;28;20333;-71
2021/11/26 02:05:31;;;;;;;51.53;19.63;;;;;;;-0.43;100.00;95990.19;2081404;28;20025;-71
2021/11/26 02:06:31;;;;;;;48.33;19.57;;;;;;;-0.44;100.00;95987.84;2073471;28;20104;-71
2021/11/26 02:07:32;;;;;;;46.27;18.77;;;;;;;-0.47;100.00;95988.41;2073917;28;20029;-71
2021/11/26 02:08:32;;;;;;;47.63;18.47;;;;;;;-0.42;100.00;95981.16;2073943;28;20022;-70
2021/11/26 02:09:33;;;;;;;48.60;19.45;;;;;;;-0.44;100.00;95988.63;2081357;28;20188;-71
2021/11/26 02:10:34;;;;;;;45.63;18.63;;;;;;;-0.46;100.00;95977.50;2081244;28;20029;-70
2021/11/26 02:11:34;;;;;;;46.08;18.48;;;;;;;-0.43;100.00;95974.25;2081446;28;20251;-71
2021/11/26 02:12:35;;;;;;;46.77;19.13;;;;;;;-0.43;100.00;95984.88;2074032;28;20351;-70
2021/11/26 02:13:35;;;;;;;42.90;17.77;;;;;;;-0.44;100.00;95982.53;2074054;28;20368;-71
2021/11/26 02:14:36;;;;;;;48.30;18.63;;;;;;;-0.47;100.00;95986.53;2073905;28;20088;-71
2021/11/26 02:15:40;;;;;;;50.40;20.45;;;;;;;-0.50;100.00;95983.69;2073128;28;20097;-71
2021/11/26 02:16:45;;;;;;;45.03;19.15;;;;;;;-0.48;100.00;95974.31;2073423;28;20026;-71
2021/11/26 02:17:47;;;;;;;50.78;19.20;;;;;;;-0.50;100.00;95981.03;2074104;28;20152;-71
2021/11/26 02:18:48;;;;;;;47.05;20.05;;;;;;;-0.47;100.00;95985.75;2073996;28;20026;-71
2021/11/26 02:19:53;;;;;;;49.25;19.30;;;;;;;-0.52;100.00;95983.97;2073161;28;20325;-71
2021/11/26 02:20:53;;;;;;;46.78;19.98;;;;;;;-0.47;100.00;95972.47;2073409;28;20038;-71
2021/11/26 02:21:55;;;;;;;47.03;18.60;;;;;;;-0.47;100.00;95975.13;2081457;28;20072;-71
2021/11/26 02:22:58;;;;;;;46.67;19.40;;;;;;;-0.48;100.00;95986.81;2073962;28;20101;-71
2021/11/26 02:23:58;;;;;;;47.25;18.38;;;;;;;-0.49;100.00;95980.72;2073960;28;20030;-70
2021/11/26 02:24:58;;;;;;;46.75;18.75;;;;;;;-0.50;100.00;95968.50;2073183;28;20061;-71
2021/11/26 02:25:59;;;;;;;47.97;18.20;;;;;;;-0.50;100.00;95979.13;2065032;28;20402;-71
2021/11/26 02:27:00;;;;;;;45.07;18.67;;;;;;;-0.47;100.00;95973.25;2073289;28;20403;-71
2021/11/26 02:28:04;;;;;;;47.67;19.00;;;;;;;-0.49;100.00;95971.94;2074022;28;20056;-71
2021/11/26 02:29:04;;;;;;;44.47;18.33;;;;;;;-0.49;100.00;95971.94;2074059;28;20337;-71
2021/11/26 02:30:17;;;;;;;46.55;18.15;;;;;;;-0.50;100.00;95965.06;2073094;28;20064;-72
2021/11/26 02:31:17;;;;;;;47.00;17.80;;;;;;;-0.47;100.00;95970.59;2073509;28;20030;-71
2021/11/26 02:32:17;;;;;;;43.93;17.83;;;;;;;-0.42;100.00;95965.22;2073919;28;20235;-71
2021/11/26 02:33:20;;;;;;;46.40;19.03;;;;;;;-0.47;100.00;95967.94;2073939;28;20414;-71
2021/11/26 02:34:20;;;;;;;45.70;17.95;;;;;;;-0.51;100.00;95964.28;2073855;28;20026;-71
2021/11/26 02:35:21;;;;;;;46.13;18.43;;;;;;;-0.49;100.00;95961.31;2073752;28;20110;-71
2021/11/26 02:36:22;;;;;;;44.88;18.67;;;;;;;-0.49;100.00;95956.78;2073850;28;20042;-71
2021/11/26 02:37:22;;;;;;;47.60;18.60;;;;;;;-0.51;100.00;95961.63;2073792;28;20040;-70
2021/11/26 02:38:25;;;;;;;44.30;18.25;;;;;;;-0.55;100.00;95957.94;2073927;28;20436;-71
2021/11/26 02:39:26;;;;;;;45.57;18.53;;;;;;;-0.57;100.00;95954.75;2081238;28;20025;-71
2021/11/26 02:40:28;;;;;;;46.20;18.00;;;;;;;-0.51;100.00;95955.50;2081067;28;20397;-71
2021/11/26 02:41:29;;;;;;;43.33;17.90;;;;;;;-0.39;100.00;95955.88;2073048;28;20092;-71
2021/11/26 02:42:29;;;;;;;43.63;17.87;;;;;;;-0.33;100.00;95957.38;2073081;28;20077;-70
2021/11/26 02:43:29;;;;;;;46.47;18.33;;;;;;;-0.30;100.00;95948.06;2073713;28;20083;-70
2021/11/26 02:44:30;;;;;;;39.92;16.90;;;;;;;-0.25;100.00;95953.28;2072906;28;20026;-71
2021/11/26 02:45:30;;;;;;;45.83;18.20;;;;;;;-0.23;100.00;95957.25;2064885;28;20069;-71
2021/11/26 02:46:31;;;;;;;46.13;18.40;;;;;;;-0.22;100.00;95948.22;2064889;28;20030;-71
2021/11/26 02:47:31;;;;;;;41.42;17.77;;;;;;;-0.25;100.00;95963.94;2072927;28;20487;-71
2021/11/26 02:48:32;;;;;;;48.23;18.77;;;;;;;-0.27;100.00;95961.56;2073026;28;20046;-70
2021/11/26 02:49:32;;;;;;;43.90;17.65;;;;;;;-0.28;100.00;95952.00;2072966;28;20018;-70
2021/11/26 02:50:34;;;;;;;47.10;18.47;;;;;;;-0.36;100.00;95950.00;2072859;28;20428;-71
2021/11/26 02:51:35;;;;;;;43.85;18.00;;;;;;;-0.41;100.00;95955.38;2072840;28;20092;-71
2021/11/26 02:52:38;;;;;;;46.77;18.33;;;;;;;-0.45;100.00;95949.06;2073074;28;20025;-71
2021/11/26 02:53:38;;;;;;;45.17;17.52;;;;;;;-0.43;100.00;95945.00;2072846;28;20553;-71
2021/11/26 02:54:38;;;;;;;46.33;18.20;;;;;;;-0.43;100.00;95952.97;2064778;28;20177;-71
2021/11/26 02:55:39;;;;;;;47.45;17.95;;;;;;;-0.36;100.00;95951.88;2072789;28;20026;-71
2021/11/26 02:56:39;;;;;;;48.50;19.60;;;;;;;-0.30;100.00;95948.84;2081138;28;20056;-71
2021/11/26 02:57:40;;;;;;;45.77;18.13;;;;;;;-0.35;100.00;95948.09;2073785;28;20033;-71
2021/11/26 02:58:40;;;;;;;49.03;19.10;;;;;;;-0.31;100.00;95947.25;2073679;28;20368;-71
2021/11/26 02:59:40;;;;;;;46.25;18.23;;;;;;;-0.28;100.00;95946.66;2081059;28;20111;-71
2021/11/26 03:00:44;;;;;;;45.97;18.20;;;;;;;-0.31;100.00;95944.59;2080882;28;20029;-71
2021/11/26 03:01:44;;;;;;;45.80;18.45;;;;;;;-0.33;100.00;95945.97;2081043;28;20064;-70
2021/11/26 03:02:44;;;;;;;46.93;18.87;;;;;;;-0.32;100.00;95948.34;2073610;28;20025;-70
2021/11/26 03:03:45;;;;;;;47.27;19.33;;;;;;;-0.33;100.00;95948.63;2073665;28;20047;-71
2021/11/26 03:04:45;;;;;;;47.77;18.87;;;;;;;-0.33;100.00;95948.63;2073448;28;20109;-70
2021/11/26 03:05:46;;;;;;;50.70;19.70;;;;;;;-0.44;100.00;95942.66;2073002;28;20104;-71
2021/11/26 03:06:46;;;;;;;50.13;19.23;;;;;;;-0.37;100.00;95939.66;2064628;28;20026;-71
2021/11/26 03:07:47;;;;;;;49.57;19.77;;;;;;;-0.35;100.00;95945.44;2064716;28;20472;-70
2021/11/26 03:08:47;;;;;;;51.35;19.55;;;;;;;-0.32;100.00;95947.53;2072817;28;20021;-71
2021/11/26 03:09:48;;;;;;;49.13;18.90;;;;;;;-0.30;100.00;95946.19;2073515;28;20050;-71
2021/11/26 03:10:48;;;;;;;47.17;19.42;;;;;;;-0.30;100.00;95940.88;2073340;28;20026;-71
2021/11/26 03:11:48;;;;;;;50.33;20.57;;;;;;;-0.28;100.00;95929.94;2073533;28;20127;-71
2021/11/26 03:12:55;;;;;;;51.03;20.87;;;;;;;-0.28;100.00;95935.25;2073485;28;20105;-70
2021/11/26 03:13:55;;;;;;;48.25;19.23;;;;;;;-0.31;100.00;95933.19;2073561;28;20083;-71
2021/11/26 03:14:55;;;;;;;49.07;20.13;;;;;;;-0.41;100.00;95932.22;2073495;28;20038;-71
2021/11/26 03:15:56;;;;;;;49.10;18.67;;;;;;;-0.34;100.00;95934.53;2072879;28;20495;-71
2021/11/26 03:16:56;;;;;;;48.70;20.35;;;;;;;-0.37;100.00;95927.16;2072836;28;20024;-71
2021/11/26 03:17:57;;;;;;;49.77;19.97;;;;;;;-0.29;100.00;95929.16;2073630;28;20076;-71
2021/11/26 03:18:58;;;;;;;45.33;18.88;;;;;;;-0.28;100.00;95932.59;2072651;28;20030;-71
2021/11/26 03:19:58;;;;;;;48.60;19.73;;;;;;;-0.28;100.00;95938.69;2064575;28;20046;-70
2021/11/26 03:20:59;;;;;;;48.58;19.58;;;;;;;-0.37;100.00;95934.34;2072682;28;20029;-70
2021/11/26 03:21:59;;;;;;;47.27;20.27;;;;;;;-0.35;100.00;95932.94;2072825;28;20032;-70
2021/11/26 03:23:00;;;;;;;49.63;19.98;;;;;;;-0.38;100.00;95938.06;2072614;28;20439;-71
2021/11/26 03:24:00;;;;;;;49.97;19.80;;;;;;;-0.42;100.00;95935.97;2081021;28;20025;-70
2021/11/26 03:25:02;;;;;;;50.13;19.57;;;;;;;-0.44;100.00;95929.38;2073421;28;20100;-72
2021/11/26 03:26:02;;;;;;;49.15;19.90;;;;;;;-0.47;100.00;95930.72;2073356;28;20098;-71
2021/11/26 03:27:02;;;;;;;50.60;20.03;;;;;;;-0.48;100.00;95929.13;2073533;28;20026;-71
2021/11/26 03:28:03;;;;;;;50.03;20.70;;;;;;;-0.49;100.00;95929.44;2072762;28;20026;-71
2021/11/26 03:29:04;;;;;;;49.30;19.55;;;;;;;-0.48;100.00;95931.81;2072782;28;20438;-70
2021/11/26 03:30:05;;;;;;;47.90;19.93;;;;;;;-0.48;100.00;95921.16;2080605;28;20064;-71
2021/11/26 03:31:06;;;;;;;48.58;19.50;;;;;;;-0.47;100.00;95916.66;2080891;28;20055;-71
2021/11/26 03:32:06;;;;;;;46.63;18.47;;;;;;;-0.50;100.00;95914.56;2073429;28;20121;-71
2021/11/26 03:33:07;;;;;;;48.47;19.73;;;;;;;-0.50;100.00;95918.00;2073404;28;20096;-71
2021/11/26 03:34:07;;;;;;;48.17;20.10;;;;;;;-0.50;100.00;95910.03;2072648;28;20030;-71
2021/11/26 03:35:08;;;;;;;48.90;17.87;;;;;;;-0.45;100.00;95906.53;2064539;28;20066;-71
2021/11/26 03:36:08;;;;;;;46.20;18.70;;;;;;;-0.38;100.00;95914.94;2064505;28;20443;-71
2021/11/26 03:37:09;;;;;;;47.53;18.90;;;;;;;-0.31;100.00;95915.38;2072794;28;20071;-70
2021/11/26 03:38:09;;;;;;;48.60;19.73;;;;;;;-0.25;100.00;95913.41;2073376;28;20060;-70
2021/11/26 03:39:10;;;;;;;48.03;20.40;;;;;;;-0.27;100.00;95908.38;2072672;28;20030;-70
2021/11/26 03:40:12;;;;;;;46.85;19.30;;;;;;;-0.34;100.00;95913.28;2064177;28;20356;-70
2021/11/26 03:41:12;;;;;;;46.13;19.67;;;;;;;-0.40;100.00;95893.94;2072724;28;20188;-70
2021/11/26 03:42:13;;;;;;;47.83;19.30;;;;;;;-0.41;100.00;95897.69;2073311;28;20014;-70
2021/11/26 03:43:13;;;;;;;48.60;18.90;;;;;;;-0.39;100.00;95894.75;2073298;28;20075;-70
2021/11/26 03:44:13;;;;;;;45.43;18.10;;;;;;;-0.36;100.00;95891.53;2073315;28;20543;-71
2021/11/26 03:45:16;;;;;;;46.70;18.60;;;;;;;-0.38;100.00;95898.97;2073292;28;20105;-70
2021/11/26 03:46:16;;;;;;;42.27;17.97;;;;;;;-0.30;100.00;95887.69;2072426;28;20606;-71
2021/11/26 03:47:17;;;;;;;44.40;18.45;;;;;;;-0.35;100.00;95881.66;2064516;28;20694;-70
2021/11/26 03:48:17;;;;;;;49.80;20.37;;;;;;;-0.37;100.00;95889.16;2072470;28;20030;-71
2021/11/26 03:49:17;;;;;;;43.70;18.50;;;;;;;-0.37;100.00;95881.16;2072654;28;20033;-71
2021/11/26 03:50:18;;;;;;;44.60;18.10;;;;;;;-0.38;100.00;95875.06;2072554;28;20448;-71
2021/11/26 03:51:19;;;;;;;46.30;19.23;;;;;;;-0.40;100.00;95883.31;2073312;28;20455;-71
2021/11/26 03:52:19;;;;;;;43.23;18.17;;;;;;;-0.26;100.00;95885.25;2073408;28;20025;-71
2021/11/26 03:53:20;;;;;;;43.60;17.88;;;;;;;-0.29;100.00;95881.31;2073251;28;20128;-71
2021/11/26 03:54:20;;;;;;;45.80;17.88;;;;;;;-0.31;100.00;95885.31;2072612;28;20103;-71
2021/11/26 03:55:23;;;;;;;44.00;17.70;;;;;;;-0.28;100.00;95885.53;2064532;28;20026;-71
2021/11/26 03:56:23;;;;;;;44.13;18.65;;;;;;;-0.25;100.00;95887.63;2064517;28;20587;-71
2021/11/26 03:57:24;;;;;;;45.95;18.00;;;;;;;-0.25;100.00;95890.28;2072428;28;20120;-71
2021/11/26 03:58:24;;;;;;;47.03;19.00;;;;;;;-0.21;100.00;95885.16;2072555;28;20487;-71
2021/11/26 03:59:24;;;;;;;47.03;18.87;;;;;;;-0.21;100.00;95882.50;2064543;28;20096;-71
2021/11/26 04:00:25;;;;;;;45.67;19.43;;;;;;;-0.30;100.00;95885.03;2072438;28;20383;-71
2021/11/26 04:01:26;;;;;;;46.28;18.52;;;;;;;-0.31;100.00;95883.47;2073416;28;20041;-71
2021/11/26 04:02:26;;;;;;;45.60;18.67;;;;;;;-0.34;100.00;95876.06;2072733;28;20472;-71
2021/11/26 04:03:26;;;;;;;46.90;19.17;;;;;;;-0.41;100.00;95873.75;2072651;28;20112;-71
2021/11/26 04:04:27;;;;;;;46.50;18.83;;;;;;;-0.42;100.00;95876.69;2080805;28;20021;-71
2021/11/26 04:05:27;;;;;;;49.33;19.63;;;;;;;-0.44;100.00;95879.66;2072635;28;20068;-71
2021/11/26 04:06:27;;;;;;;48.37;19.17;;;;;;;-0.44;100.00;95877.00;2072887;28;20108;-70
2021/11/26 04:07:28;;;;;;;46.13;18.87;;;;;;;-0.46;100.00;95876.50;2073579;28;20406;-71
2021/11/26 04:08:28;;;;;;;48.30;18.77;;;;;;;-0.53;100.00;95873.41;2073511;28;20107;-72
2021/11/26 04:09:28;;;;;;;47.83;18.38;;;;;;;-0.54;100.00;95876.34;2072685;28;20082;-71
2021/11/26 04:10:30;;;;;;;48.83;18.37;;;;;;;-0.54;100.00;95866.50;2072486;28;20061;-71
2021/11/26 04:11:34;;;;;;;50.83;19.60;;;;;;;-0.56;100.00;95868.66;2073307;28;20042;-71
2021/11/26 04:12:35;;;;;;;48.83;19.05;;;;;;;-0.53;100.00;95869.97;2073436;28;20075;-71
2021/11/26 04:13:35;;;;;;;45.40;18.47;;;;;;;-0.57;100.00;95867.06;2073328;28;20068;-71
2021/11/26 04:14:35;;;;;;;46.33;18.17;;;;;;;-0.50;100.00;95869.41;2073420;28;20045;-71
2021/11/26 04:15:38;;;;;;;47.55;19.10;;;;;;;-0.52;100.00;95867.03;2072611;28;20251;-71
2021/11/26 04:16:38;;;;;;;45.78;18.92;;;;;;;-0.55;100.00;95861.47;2072642;28;20125;-71
2021/11/26 04:17:39;;;;;;;48.33;18.57;;;;;;;-0.56;100.00;95859.91;2073301;28;20451;-71
2021/11/26 04:18:41;;;;;;;45.33;18.00;;;;;;;-0.51;100.00;95854.53;2073253;28;20033;-71
2021/11/26 04:19:41;;;;;;;51.50;19.48;;;;;;;-0.58;100.00;95864.72;2072496;28;20271;-71
2021/11/26 04:20:45;;;;;;;48.72;19.25;;;;;;;-0.60;100.00;95849.06;2072438;28;20053;-70
2021/11/26 04:21:46;;;;;;;47.42;18.42;;;;;;;-0.64;100.00;95847.28;2080596;28;20371;-71
2021/11/26 04:22:46;;;;;;;46.28;18.10;;;;;;;-0.67;100.00;95851.28;2072529;28;20026;-71
2021/11/26 04:23:47;;;;;;;47.43;18.20;;;;;;;-0.66;100.00;95850.22;2072036;28;20029;-71
2021/11/26 04:24:47;;;;;;;45.80;18.17;;;;;;;-0.70;100.00;95851.06;2073108;28;20022;-70
2021/11/26 04:25:47;;;;;;;45.50;18.87;;;;;;;-0.71;100.00;95852.16;2073199;28;20200;-71
2021/11/26 04:26:47;;;;;;;46.72;18.40;;;;;;;-0.73;100.00;95849.78;2073231;28;20040;-71
2021/11/26 04:27:49;;;;;;;48.70;18.73;;;;;;;-0.75;100.00;95843.97;2073267;28;20029;-71
2021/11/26 04:28:49;;;;;;;47.50;18.52;;;;;;;-0.76;100.00;95846.91;2072472;28;20113;-71
2021/11/26 04:29:49;;;;;;;44.63;17.53;;;;;;;-0.79;100.00;95848.28;2072595;28;20021;-71
2021/11/26 04:30:50;;;;;;;46.83;18.50;;;;;;;-0.80;100.00;95841.38;2072309;28;20033;-71
2021/11/26 04:31:51;;;;;;;46.85;18.63;;;;;;;-0.79;100.00;95840.31;2072472;28;20459;-71
2021/11/26 04:32:52;;;;;;;49.57;19.40;;;;;;;-0.80;100.00;95836.06;2072659;28;20073;-71
2021/11/26 04:33:54;;;;;;;46.00;19.13;;;;;;;-0.80;100.00;95839.53;2072691;28;20101;-70
2021/11/26 04:34:54;;;;;;;45.60;18.35;;;;;;;-0.79;100.00;95835.00;2072445;28;20032;-70
2021/11/26 04:35:55;;;;;;;49.93;19.30;;;;;;;-0.81;100.00;95840.59;2072690;28;20044;-71
2021/11/26 04:36:55;;;;;;;46.35;18.48;;;;;;;-0.78;100.00;95835.78;2072559;28;20092;-71
2021/11/26 04:37:56;;;;;;;48.83;19.37;;;;;;;-0.76;100.00;95829.09;2072518;28;20037;-70